| time (UTC) | temp C | wind direction | speed KPH | gust KPH | rain 1hr cm | rain 24hr cm | rain mn cm | humidity % | barometer mb |
| 20260505185514 | 12 | 299 | 24.1 | 37.0 | 0.00 | 0.00 | 0.00 | 36 | 1009.9 |
| 20260505185015 | 12 | 277 | 27.4 | 37.0 | 0.00 | 0.00 | 0.00 | 35 | 1009.9 |
| 20260505184532 | 12 | 311 | 20.9 | 32.2 | 0.00 | 0.00 | 0.00 | 35 | 1009.9 |
| 20260505184014 | 12 | 269 | 16.1 | 30.6 | 0.00 | 0.00 | 0.00 | 35 | 1009.8 |
| 20260505183513 | 12 | 271 | 19.3 | 30.6 | 0.00 | 0.00 | 0.00 | 35 | 1009.7 |
| 20260505183031 | 12 | 310 | 22.5 | 40.2 | 0.00 | 0.00 | 0.00 | 36 | 1009.7 |
| 20260505182513 | 12 | 306 | 22.5 | 40.2 | 0.00 | 0.00 | 0.00 | 35 | 1009.8 |
| 20260505182013 | 12 | 301 | 22.5 | 35.4 | 0.00 | 0.00 | 0.00 | 36 | 1009.6 |
| 20260505181533 | 12 | 292 | 22.5 | 32.2 | 0.00 | 0.00 | 0.00 | 34 | 1009.5 |
| 20260505181014 | 11 | 296 | 25.7 | 35.4 | 0.00 | 0.00 | 0.00 | 34 | 1009.4 |
| 20260505180513 | 11 | 271 | 24.1 | 35.4 | 0.00 | 0.00 | 0.00 | 36 | 1009.5 |
| 20260505180036 | 11 | 236 | 16.1 | 32.2 | 0.00 | 0.00 | 0.00 | 34 | 1009.4 |
| 20260505175515 | 11 | 256 | 17.7 | 32.2 | 0.00 | 0.00 | 0.00 | 36 | 1009.4 |
| 20260505175014 | 11 | 294 | 17.7 | 27.4 | 0.00 | 0.00 | 0.00 | 37 | 1009.4 |
| 20260505174532 | 11 | 257 | 14.5 | 27.4 | 0.00 | 0.00 | 0.00 | 38 | 1009.3 |
| 20260505174014 | 11 | 292 | 14.5 | 35.4 | 0.00 | 0.00 | 0.00 | 40 | 1009.3 |
| 20260505173511 | 11 | 322 | 24.1 | 35.4 | 0.00 | 0.00 | 0.00 | 37 | 1009.4 |
| 20260505173032 | 11 | 302 | 25.7 | 35.4 | 0.00 | 0.00 | 0.00 | 37 | 1009.3 |
| 20260505172514 | 11 | 257 | 19.3 | 32.2 | 0.00 | 0.00 | 0.00 | 39 | 1009.3 |
| 20260505172013 | 11 | 304 | 25.7 | 32.2 | 0.00 | 0.00 | 0.00 | 37 | 1009.3 |
| 20260505171529 | 10 | 305 | 22.5 | 32.2 | 0.00 | 0.00 | 0.00 | 37 | 1009.3 |
| 20260505171013 | 11 | 292 | 25.7 | 32.2 | 0.00 | 0.00 | 0.00 | 36 | 1009.3 |
| 20260505170514 | 11 | 271 | 19.3 | 29.0 | 0.00 | 0.00 | 0.00 | 39 | 1009.4 |
| 20260505170031 | 11 | 294 | 17.7 | 27.4 | 0.00 | 0.00 | 0.00 | 36 | 1009.4 |
| 20260505165513 | 11 | 302 | 17.7 | 27.4 | 0.00 | 0.00 | 0.00 | 36 | 1009.4 |
| 20260505165013 | 11 | 288 | 17.7 | 30.6 | 0.00 | 0.00 | 0.00 | 37 | 1009.3 |
| 20260505164537 | 11 | 270 | 20.9 | 33.8 | 0.00 | 0.00 | 0.00 | 34 | 1009.3 |
| 20260505164014 | 11 | 296 | 22.5 | 41.8 | 0.00 | 0.00 | 0.00 | 35 | 1009.2 |
| 20260505163513 | 11 | 303 | 17.7 | 41.8 | 0.00 | 0.00 | 0.00 | 35 | 1009.2 |
| 20260505163040 | 11 | 267 | 22.5 | 35.4 | 0.00 | 0.00 | 0.00 | 33 | 1009.2 |
| 20260505162513 | 11 | 323 | 20.9 | 33.8 | 0.00 | 0.00 | 0.00 | 35 | 1009.1 |
| 20260505162013 | 11 | 330 | 19.3 | 33.8 | 0.00 | 0.00 | 0.00 | 36 | 1009.0 |
| 20260505161532 | 11 | 334 | 20.9 | 35.4 | 0.00 | 0.00 | 0.00 | 37 | 1008.9 |
| 20260505161014 | 10 | 315 | 24.1 | 35.4 | 0.00 | 0.00 | 0.00 | 37 | 1009.1 |
| 20260505160514 | 11 | 281 | 24.1 | 32.2 | 0.00 | 0.00 | 0.00 | 35 | 1009.2 |
| 20260505153039 | 11 | 317 | 19.3 | 32.2 | 0.00 | 0.00 | 0.00 | 37 | 1009.1 |
| 20260505152515 | 10 | 342 | 19.3 | 32.2 | 0.00 | 0.00 | 0.00 | 35 | 1009.1 |
| 20260505152020 | 10 | 270 | 22.5 | 33.8 | 0.00 | 0.00 | 0.00 | 36 | 1009.1 |
| 20260505151530 | 10 | 283 | 17.7 | 33.8 | 0.00 | 0.00 | 0.00 | 38 | 1009.1 |
| 20260505151013 | 10 | 288 | 24.1 | 33.8 | 0.00 | 0.00 | 0.00 | 35 | 1009.1 |
| 20260505150511 | 10 | 293 | 20.9 | 29.0 | 0.00 | 0.00 | 0.00 | 38 | 1008.9 |
| 20260505140514 | 10 | 304 | 24.1 | 30.6 | 0.00 | 0.00 | 0.00 | 40 | 1009.1 |
| 20260505125015 | 8 | 269 | 6.4 | 11.3 | 0.00 | 0.00 | 0.00 | 53 | 1009.4 |
| 20260505124536 | 8 | 272 | 4.8 | 11.3 | 0.00 | 0.00 | 0.00 | 54 | 1009.2 |
| 20260505124014 | 8 | 263 | 3.2 | 12.9 | 0.00 | 0.00 | 0.00 | 55 | 1009.3 |
| 20260505123518 | 8 | 279 | 9.7 | 12.9 | 0.00 | 0.00 | 0.00 | 53 | 1009.2 |
| 20260505123047 | 7 | 273 | 4.8 | 12.9 | 0.00 | 0.00 | 0.00 | 53 | 1009.3 |
| 20260505122514 | 7 | 288 | 6.4 | 12.9 | 0.00 | 0.00 | 0.00 | 53 | 1009.2 |
| 20260505122016 | 7 | 293 | 8.0 | 12.9 | 0.00 | 0.00 | 0.00 | 54 | 1009.2 |
| 20260505121532 | 7 | 292 | 4.8 | 11.3 | 0.00 | 0.00 | 0.00 | 55 | 1009.5 |
| 20260505121014 | 7 | 281 | 4.8 | 11.3 | 0.00 | 0.00 | 0.00 | 54 | 1009.6 |
| 20260505120513 | 7 | 304 | 6.4 | 11.3 | 0.00 | 0.00 | 0.00 | 54 | 1009.0 |
| 20260505120040 | 7 | 271 | 6.4 | 11.3 | 0.00 | 0.00 | 0.00 | 53 | 1009.7 |
| 20260505115513 | 7 | 292 | 1.6 | 8.0 | 0.00 | 0.00 | 0.00 | 53 | 1009.1 |
| 20260505115012 | 7 | 325 | 6.4 | 11.3 | 0.00 | 0.00 | 0.00 | 53 | 1008.9 |
| 20260505114529 | 7 | 302 | 1.6 | 16.1 | 0.00 | 0.00 | 0.00 | 54 | 1008.9 |
| 20260505114013 | 7 | 290 | 9.7 | 16.1 | 0.00 | 0.00 | 0.00 | 54 | 1008.7 |
| 20260505113511 | 7 | 300 | 9.7 | 16.1 | 0.00 | 0.00 | 0.00 | 54 | 1008.8 |
| 20260505113028 | 7 | 315 | 12.9 | 16.1 | 0.00 | 0.00 | 0.00 | 54 | 1008.5 |
| 20260505112515 | 7 | 263 | 3.2 | 9.7 | 0.00 | 0.00 | 0.00 | 54 | 1009.0 |
| 20260505112013 | 7 | 250 | 4.8 | 16.1 | 0.00 | 0.00 | 0.00 | 54 | 1008.9 |
| 20260505111532 | 7 | 306 | 8.0 | 20.9 | 0.00 | 0.00 | 0.00 | 53 | 1008.0 |
| 20260505111015 | 7 | 329 | 14.5 | 20.9 | 0.00 | 0.00 | 0.00 | 54 | 1007.2 |
| 20260505110513 | 7 | 323 | 16.1 | 19.3 | 0.00 | 0.00 | 0.00 | 54 | 1007.1 |
| 20260505102010 | 8 | 299 | 6.4 | 9.7 | 0.00 | 0.00 | 0.00 | 53 | 1008.0 |
| 20260505101533 | 8 | 329 | 3.2 | 12.9 | 0.00 | 0.00 | 0.00 | 54 | 1007.9 |
| 20260505101015 | 8 | 121 | 6.4 | 16.1 | 0.00 | 0.00 | 0.00 | 53 | 1007.4 |
| 20260505100514 | 8 | 347 | 11.3 | 17.7 | 0.00 | 0.00 | 0.00 | 53 | 1007.3 |
| 20260505100031 | 8 | 317 | 9.7 | 19.3 | 0.00 | 0.00 | 0.00 | 53 | 1007.2 |
| 20260505095513 | 8 | 207 | 14.5 | 19.3 | 0.00 | 0.00 | 0.00 | 52 | 1007.0 |
| 20260505095012 | 8 | 351 | 9.7 | 20.9 | 0.00 | 0.00 | 0.00 | 53 | 1006.8 |
| 20260505094530 | 8 | 351 | 12.9 | 22.5 | 0.00 | 0.00 | 0.00 | 53 | 1006.8 |
| 20260505094012 | 8 | 320 | 14.5 | 30.6 | 0.00 | 0.00 | 0.00 | 52 | 1007.0 |
| 20260505093513 | 8 | 333 | 24.1 | 30.6 | 0.00 | 0.00 | 0.00 | 51 | 1007.0 |
| 20260505093030 | 8 | 202 | 14.5 | 22.5 | 0.00 | 0.00 | 0.00 | 52 | 1006.5 |
| 20260505092513 | 8 | 147 | 12.9 | 20.9 | 0.00 | 0.00 | 0.00 | 52 | 1006.4 |
| 20260505092014 | 8 | 165 | 11.3 | 14.5 | 0.00 | 0.00 | 0.00 | 52 | 1006.3 |
| 20260505091532 | 8 | 360 | 8.0 | 16.1 | 0.00 | 0.00 | 0.00 | 52 | 1006.3 |
| 20260505091013 | 9 | 184 | 9.7 | 17.7 | 0.00 | 0.00 | 0.00 | 53 | 1006.4 |
| 20260505090514 | 9 | 348 | 9.7 | 19.3 | 0.00 | 0.00 | 0.00 | 51 | 1006.7 |
| 20260505090031 | 9 | 334 | 12.9 | 19.3 | 0.00 | 0.00 | 0.00 | 51 | 1006.8 |
| 20260505085513 | 9 | 322 | 11.3 | 20.9 | 0.00 | 0.00 | 0.00 | 51 | 1007.1 |
| 20260505085013 | 9 | 327 | 12.9 | 24.1 | 0.00 | 0.00 | 0.00 | 50 | 1007.1 |
| 20260505084545 | 9 | 327 | 16.1 | 24.1 | 0.00 | 0.00 | 0.00 | 50 | 1006.8 |
| 20260505084012 | 9 | 327 | 14.5 | 24.1 | 0.00 | 0.00 | 0.00 | 50 | 1006.8 |
| 20260505083512 | 9 | 332 | 19.3 | 24.1 | 0.00 | 0.00 | 0.00 | 49 | 1006.4 |
| 20260505083050 | 9 | 328 | 16.1 | 22.5 | 0.00 | 0.00 | 0.00 | 49 | 1006.0 |
| 20260505082512 | 9 | 333 | 14.5 | 25.7 | 0.00 | 0.00 | 0.00 | 49 | 1006.0 |
| 20260505082013 | 9 | 338 | 16.1 | 27.4 | 0.00 | 0.00 | 0.00 | 49 | 1005.6 |
| 20260505081537 | 9 | 317 | 19.3 | 27.4 | 0.00 | 0.00 | 0.00 | 49 | 1005.7 |
| 20260505081015 | 9 | 331 | 16.1 | 25.7 | 0.00 | 0.00 | 0.00 | 49 | 1005.7 |
| 20260505080512 | 10 | 12 | 14.5 | 24.1 | 0.00 | 0.00 | 0.00 | 49 | 1005.3 |
| 20260505080040 | 10 | 203 | 14.5 | 33.8 | 0.00 | 0.00 | 0.00 | 49 | 1005.1 |
| 20260505075514 | 10 | 338 | 20.9 | 33.8 | 0.00 | 0.00 | 0.00 | 49 | 1005.2 |
| 20260505075011 | 10 | 341 | 20.9 | 35.4 | 0.00 | 0.00 | 0.00 | 49 | 1005.2 |
| 20260505074529 | 10 | 351 | 24.1 | 35.4 | 0.00 | 0.00 | 0.00 | 49 | 1005.1 |
| 20260505074014 | 10 | 326 | 22.5 | 32.2 | 0.00 | 0.00 | 0.00 | 50 | 1004.9 |
| 20260505073514 | 10 | 351 | 20.9 | 29.0 | 0.00 | 0.00 | 0.00 | 52 | 1004.9 |
| 20260505073040 | 10 | 5 | 16.1 | 27.4 | 0.00 | 0.00 | 0.00 | 52 | 1005.1 |
| 20260505072513 | 10 | 348 | 16.1 | 29.0 | 0.00 | 0.00 | 0.00 | 52 | 1004.7 |
| 20260505072011 | 10 | 336 | 17.7 | 29.0 | 0.00 | 0.00 | 0.00 | 52 | 1004.7 |
| 20260505071542 | 10 | 340 | 16.1 | 27.4 | 0.00 | 0.00 | 0.00 | 53 | 1004.4 |
| 20260505071015 | 11 | 336 | 16.1 | 29.0 | 0.00 | 0.00 | 0.00 | 53 | 1004.5 |
| 20260505070515 | 11 | 352 | 17.7 | 29.0 | 0.00 | 0.00 | 0.00 | 52 | 1004.0 |
| 20260505070041 | 11 | 344 | 11.3 | 25.7 | 0.00 | 0.00 | 0.00 | 52 | 1003.7 |
| 20260505065513 | 11 | 342 | 14.5 | 20.9 | 0.00 | 0.00 | 0.00 | 52 | 1003.8 |
| 20260505065011 | 11 | 300 | 12.9 | 20.9 | 0.00 | 0.00 | 0.00 | 51 | 1004.2 |
| 20260505064534 | 11 | 302 | 14.5 | 19.3 | 0.00 | 0.00 | 0.00 | 51 | 1004.2 |
| 20260505064014 | 11 | 293 | 12.9 | 20.9 | 0.00 | 0.00 | 0.00 | 50 | 1004.0 |
| 20260505063514 | 11 | 317 | 14.5 | 24.1 | 0.00 | 0.00 | 0.00 | 50 | 1003.6 |
| 20260505063038 | 11 | 317 | 16.1 | 27.4 | 0.00 | 0.00 | 0.00 | 50 | 1003.7 |
| 20260505062512 | 11 | 303 | 17.7 | 27.4 | 0.00 | 0.00 | 0.00 | 50 | 1003.8 |
| 20260505062013 | 11 | 290 | 14.5 | 19.3 | 0.00 | 0.00 | 0.00 | 50 | 1003.7 |
| 20260505061531 | 11 | 302 | 12.9 | 24.1 | 0.00 | 0.00 | 0.00 | 50 | 1003.4 |
| 20260505061014 | 12 | 302 | 16.1 | 24.1 | 0.00 | 0.00 | 0.00 | 49 | 1003.5 |
| 20260505060514 | 12 | 294 | 14.5 | 25.7 | 0.00 | 0.00 | 0.00 | 49 | 1003.5 |
| 20260505060051 | 12 | 259 | 14.5 | 25.7 | 0.00 | 0.00 | 0.00 | 48 | 1003.5 |
| 20260505055513 | 12 | 293 | 12.9 | 22.5 | 0.00 | 0.00 | 0.00 | 48 | 1003.3 |
| 20260505055014 | 12 | 302 | 14.5 | 19.3 | 0.00 | 0.00 | 0.00 | 47 | 1003.3 |
| 20260505054531 | 12 | 317 | 14.5 | 20.9 | 0.00 | 0.00 | 0.00 | 47 | 1003.3 |
| 20260505054015 | 12 | 302 | 14.5 | 25.7 | 0.00 | 0.00 | 0.00 | 46 | 1003.2 |
| 20260505053514 | 12 | 313 | 17.7 | 25.7 | 0.00 | 0.00 | 0.00 | 46 | 1003.1 |
| 20260505053029 | 12 | 294 | 17.7 | 22.5 | 0.00 | 0.00 | 0.00 | 46 | 1003.0 |
| 20260505052513 | 13 | 300 | 14.5 | 25.7 | 0.00 | 0.00 | 0.00 | 46 | 1002.8 |
| 20260505052013 | 13 | 288 | 19.3 | 25.7 | 0.00 | 0.00 | 0.00 | 45 | 1003.0 |
| 20260505051532 | 13 | 293 | 19.3 | 25.7 | 0.00 | 0.00 | 0.00 | 45 | 1003.0 |
| 20260505051015 | 13 | 300 | 16.1 | 24.1 | 0.00 | 0.00 | 0.00 | 45 | 1002.8 |
| 20260505050514 | 13 | 288 | 19.3 | 27.4 | 0.00 | 0.00 | 0.00 | 45 | 1002.9 |
| 20260505041537 | 15 | 294 | 19.3 | 29.0 | 0.00 | 0.00 | 0.00 | 40 | 1002.3 |
| 20260505041014 | 15 | 288 | 22.5 | 29.0 | 0.00 | 0.00 | 0.00 | 39 | 1002.3 |
| 20260505040517 | 15 | 290 | 20.9 | 30.6 | 0.00 | 0.00 | 0.00 | 39 | 1002.2 |
| 20260505040034 | 15 | 297 | 24.1 | 32.2 | 0.00 | 0.00 | 0.00 | 39 | 1002.3 |
| 20260505035513 | 15 | 293 | 25.7 | 38.6 | 0.00 | 0.00 | 0.00 | 39 | 1002.3 |
| 20260505035018 | 15 | 305 | 27.4 | 38.6 | 0.00 | 0.00 | 0.00 | 39 | 1002.3 |
| 20260505034532 | 15 | 300 | 17.7 | 27.4 | 0.00 | 0.00 | 0.00 | 41 | 1002.2 |
| 20260505034017 | 16 | 300 | 19.3 | 24.1 | 0.00 | 0.00 | 0.00 | 40 | 1002.1 |
| 20260505033514 | 16 | 288 | 16.1 | 27.4 | 0.00 | 0.00 | 0.00 | 40 | 1002.0 |
| 20260505033033 | 16 | 294 | 19.3 | 33.8 | 0.00 | 0.00 | 0.00 | 40 | 1001.9 |
| 20260505032514 | 16 | 292 | 22.5 | 33.8 | 0.00 | 0.00 | 0.00 | 39 | 1002.1 |
| 20260505032016 | 16 | 266 | 20.9 | 33.8 | 0.00 | 0.00 | 0.00 | 39 | 1001.9 |
| 20260505031532 | 16 | 295 | 20.9 | 29.0 | 0.00 | 0.00 | 0.00 | 38 | 1001.8 |
| 20260505031014 | 16 | 305 | 19.3 | 32.2 | 0.00 | 0.00 | 0.00 | 37 | 1001.7 |
| 20260505030514 | 16 | 301 | 24.1 | 32.2 | 0.00 | 0.00 | 0.00 | 37 | 1001.7 |
| 20260505030034 | 16 | 317 | 17.7 | 27.4 | 0.00 | 0.00 | 0.00 | 37 | 1001.7 |
| 20260505025517 | 16 | 300 | 16.1 | 25.7 | 0.00 | 0.00 | 0.00 | 38 | 1001.6 |
| 20260505025013 | 16 | 304 | 17.7 | 25.7 | 0.00 | 0.00 | 0.00 | 38 | 1001.4 |
| 20260505024533 | 17 | 298 | 17.7 | 25.7 | 0.00 | 0.00 | 0.00 | 38 | 1001.4 |
| 20260505024015 | 17 | 310 | 12.9 | 27.4 | 0.00 | 0.00 | 0.00 | 38 | 1001.3 |
| 20260505023511 | 17 | 290 | 14.5 | 27.4 | 0.00 | 0.00 | 0.00 | 38 | 1001.1 |
| 20260505023030 | 17 | 313 | 17.7 | 29.0 | 0.00 | 0.00 | 0.00 | 36 | 1001.1 |
| 20260505022514 | 17 | 290 | 22.5 | 35.4 | 0.00 | 0.00 | 0.00 | 36 | 1001.1 |
| 20260505022014 | 17 | 286 | 24.1 | 35.4 | 0.00 | 0.00 | 0.00 | 36 | 1001.2 |
| 20260505021531 | 18 | 290 | 25.7 | 48.3 | 0.00 | 0.00 | 0.00 | 36 | 1001.2 |
| 20260505021015 | 18 | 307 | 32.2 | 53.1 | 0.00 | 0.00 | 0.00 | 35 | 1001.2 |
| 20260505020516 | 18 | 290 | 33.8 | 53.1 | 0.00 | 0.00 | 0.00 | 36 | 1001.2 |
| 20260505020038 | 18 | 279 | 19.3 | 35.4 | 0.00 | 0.00 | 0.00 | 36 | 1001.1 |
| 20260505015514 | 19 | 273 | 22.5 | 35.4 | 0.00 | 0.00 | 0.00 | 36 | 1000.9 |
| 20260505015014 | 19 | 288 | 19.3 | 32.2 | 0.00 | 0.00 | 0.00 | 35 | 1000.7 |
| 20260505014541 | 19 | 287 | 17.7 | 32.2 | 0.00 | 0.00 | 0.00 | 36 | 1000.5 |
| 20260505014011 | 20 | 288 | 22.5 | 33.8 | 0.00 | 0.00 | 0.00 | 36 | 1000.3 |
| 20260505013513 | 20 | 284 | 22.5 | 33.8 | 0.00 | 0.00 | 0.00 | 36 | 1000.1 |
| 20260505013037 | 20 | 289 | 24.1 | 35.4 | 0.00 | 0.00 | 0.00 | 36 | 999.7 |
| 20260505012514 | 20 | 287 | 20.9 | 38.6 | 0.00 | 0.00 | 0.00 | 36 | 999.5 |
| 20260505012013 | 21 | 304 | 27.4 | 41.8 | 0.00 | 0.00 | 0.00 | 35 | 999.2 |
| 20260505011536 | 21 | 291 | 29.0 | 41.8 | 0.00 | 0.00 | 0.00 | 36 | 999.0 |
| 20260505011015 | 21 | 275 | 25.7 | 40.2 | 0.00 | 0.00 | 0.00 | 36 | 998.6 |
| 20260505010511 | 21 | 293 | 27.4 | 46.7 | 0.00 | 0.00 | 0.00 | 35 | 998.4 |
| 20260505010031 | 21 | 309 | 35.4 | 46.7 | 0.00 | 0.00 | 0.00 | 35 | 998.2 |
| 20260505005513 | 22 | 287 | 35.4 | 46.7 | 0.00 | 0.00 | 0.00 | 37 | 997.9 |
| 20260505005012 | 22 | 292 | 35.4 | 46.7 | 0.00 | 0.00 | 0.00 | 37 | 997.7 |
| 20260505004544 | 22 | 295 | 29.0 | 46.7 | 0.00 | 0.00 | 0.00 | 38 | 997.5 |
| 20260505004015 | 23 | 290 | 25.7 | 41.8 | 0.00 | 0.00 | 0.00 | 38 | 997.4 |
| 20260505003513 | 23 | 302 | 25.7 | 37.0 | 0.00 | 0.00 | 0.00 | 38 | 997.3 |
| 20260505003049 | 23 | 301 | 27.4 | 37.0 | 0.00 | 0.00 | 0.00 | 38 | 997.3 |
| 20260505002514 | 23 | 286 | 19.3 | 37.0 | 0.00 | 0.00 | 0.00 | 39 | 997.2 |
| 20260505002013 | 23 | 281 | 17.7 | 32.2 | 0.00 | 0.00 | 0.00 | 38 | 997.2 |
| 20260505001530 | 24 | 270 | 20.9 | 32.2 | 0.00 | 0.00 | 0.00 | 37 | 997.0 |
| 20260505001015 | 24 | 286 | 14.5 | 30.6 | 0.00 | 0.00 | 0.00 | 37 | 996.9 |
| 20260505000512 | 25 | 272 | 17.7 | 27.4 | 0.00 | 0.00 | 0.00 | 35 | 996.7 |
| 20260505000035 | 25 | 284 | 11.3 | 22.5 | 0.00 | 0.00 | 0.00 | 36 | 996.6 |
| 20260504235514 | 25 | 284 | 11.3 | 22.5 | 0.00 | 0.00 | 0.00 | 37 | 996.6 |
| 20260504235012 | 25 | 248 | 9.7 | 29.0 | 0.00 | 0.00 | 0.00 | 38 | 996.7 |
| 20260504234531 | 25 | 257 | 16.1 | 29.0 | 0.00 | 0.00 | 0.00 | 37 | 996.7 |
| 20260504234016 | 25 | 241 | 16.1 | 27.4 | 0.00 | 0.00 | 0.00 | 37 | 996.8 |
| 20260504233513 | 25 | 244 | 14.5 | 27.4 | 0.00 | 0.00 | 0.00 | 37 | 996.7 |
| 20260504233035 | 25 | 236 | 11.3 | 29.0 | 0.00 | 0.00 | 0.00 | 38 | 996.8 |
| 20260504232517 | 25 | 220 | 11.3 | 29.0 | 0.00 | 0.00 | 0.00 | 38 | 996.7 |
| 20260504232012 | 24 | 228 | 8.0 | 24.1 | 0.00 | 0.00 | 0.00 | 39 | 996.8 |
| 20260504231532 | 25 | 219 | 11.3 | 24.1 | 0.00 | 0.00 | 0.00 | 38 | 996.9 |
| 20260504231014 | 25 | 238 | 9.7 | 20.9 | 0.00 | 0.00 | 0.00 | 37 | 996.8 |
| 20260504230516 | 25 | 220 | 12.9 | 20.9 | 0.00 | 0.00 | 0.00 | 37 | 996.7 |
| 20260504230030 | 25 | 230 | 11.3 | 22.5 | 0.00 | 0.00 | 0.00 | 37 | 996.8 |
| 20260504225512 | 25 | 219 | 14.5 | 27.4 | 0.00 | 0.00 | 0.00 | 36 | 996.8 |
| 20260504225015 | 26 | 257 | 8.0 | 27.4 | 0.00 | 0.00 | 0.00 | 35 | 997.0 |
| 20260504224529 | 26 | 206 | 11.3 | 25.7 | 0.00 | 0.00 | 0.00 | 35 | 997.1 |
| 20260504224011 | 26 | 227 | 12.9 | 29.0 | 0.00 | 0.00 | 0.00 | 33 | 997.1 |
| 20260504223512 | 26 | 252 | 16.1 | 40.2 | 0.00 | 0.00 | 0.00 | 33 | 997.2 |
| 20260504223041 | 26 | 227 | 20.9 | 46.7 | 0.00 | 0.00 | 0.00 | 32 | 997.2 |
| 20260504222517 | 26 | 230 | 25.7 | 46.7 | 0.00 | 0.00 | 0.00 | 32 | 997.2 |
| 20260504222012 | 26 | 235 | 24.1 | 43.5 | 0.00 | 0.00 | 0.00 | 32 | 997.2 |
| 20260504221530 | 26 | 244 | 19.3 | 37.0 | 0.00 | 0.00 | 0.00 | 32 | 997.2 |
| 20260504221014 | 26 | 252 | 22.5 | 41.8 | 0.00 | 0.00 | 0.00 | 32 | 997.1 |
| 20260504220514 | 26 | 219 | 17.7 | 41.8 | 0.00 | 0.00 | 0.00 | 32 | 997.1 |
| 20260504220032 | 26 | 263 | 24.1 | 37.0 | 0.00 | 0.00 | 0.00 | 31 | 997.2 |
| 20260504215514 | 26 | 238 | 19.3 | 35.4 | 0.00 | 0.00 | 0.00 | 33 | 997.2 |
| 20260504215016 | 26 | 254 | 22.5 | 35.4 | 0.00 | 0.00 | 0.00 | 33 | 997.3 |
| 20260504214532 | 26 | 250 | 19.3 | 40.2 | 0.00 | 0.00 | 0.00 | 34 | 997.3 |
| 20260504214018 | 26 | 267 | 24.1 | 40.2 | 0.00 | 0.00 | 0.00 | 32 | 997.3 |
| 20260504213514 | 26 | 251 | 24.1 | 43.5 | 0.00 | 0.00 | 0.00 | 31 | 997.3 |
| 20260504213030 | 26 | 256 | 25.7 | 43.5 | 0.00 | 0.00 | 0.00 | 32 | 997.4 |
| 20260504212512 | 26 | 257 | 20.9 | 41.8 | 0.00 | 0.00 | 0.00 | 31 | 997.4 |
| 20260504212015 | 26 | 252 | 20.9 | 37.0 | 0.00 | 0.00 | 0.00 | 32 | 997.6 |
| 20260504211544 | 26 | 244 | 17.7 | 37.0 | 0.00 | 0.00 | 0.00 | 31 | 997.5 |
| 20260504211015 | 26 | 248 | 24.1 | 37.0 | 0.00 | 0.00 | 0.00 | 31 | 997.6 |
| 20260504210511 | 26 | 271 | 22.5 | 37.0 | 0.00 | 0.00 | 0.00 | 31 | 997.8 |
| 20260504210036 | 26 | 250 | 20.9 | 38.6 | 0.00 | 0.00 | 0.00 | 32 | 997.9 |
| 20260504205514 | 26 | 249 | 25.7 | 41.8 | 0.00 | 0.00 | 0.00 | 31 | 997.9 |
| 20260504205013 | 26 | 257 | 25.7 | 41.8 | 0.00 | 0.00 | 0.00 | 31 | 997.9 |
| 20260504204532 | 26 | 242 | 20.9 | 40.2 | 0.00 | 0.00 | 0.00 | 31 | 997.9 |
| 20260504204014 | 26 | 263 | 22.5 | 41.8 | 0.00 | 0.00 | 0.00 | 31 | 998.0 |
| 20260504203514 | 26 | 232 | 22.5 | 41.8 | 0.00 | 0.00 | 0.00 | 31 | 998.0 |
| 20260504203033 | 26 | 261 | 24.1 | 40.2 | 0.00 | 0.00 | 0.00 | 31 | 998.0 |
| 20260504202516 | 26 | 209 | 22.5 | 45.1 | 0.00 | 0.00 | 0.00 | 31 | 998.1 |
| 20260504202016 | 26 | 267 | 20.9 | 45.1 | 0.00 | 0.00 | 0.00 | 31 | 998.1 |
| 20260504201531 | 26 | 234 | 22.5 | 41.8 | 0.00 | 0.00 | 0.00 | 31 | 998.2 |
| 20260504201012 | 26 | 261 | 19.3 | 41.8 | 0.00 | 0.00 | 0.00 | 34 | 998.2 |
| 20260504200515 | 26 | 220 | 17.7 | 40.2 | 0.00 | 0.00 | 0.00 | 32 | 998.2 |
| 20260504200030 | 26 | 248 | 17.7 | 37.0 | 0.00 | 0.00 | 0.00 | 33 | 998.3 |
| 20260504195518 | 26 | 250 | 19.3 | 38.6 | 0.00 | 0.00 | 0.00 | 33 | 998.3 |
| 20260504195011 | 26 | 267 | 20.9 | 45.1 | 0.00 | 0.00 | 0.00 | 33 | 998.4 |
| 20260504194531 | 26 | 242 | 27.4 | 45.1 | 0.00 | 0.00 | 0.00 | 33 | 998.4 |
| 20260504194014 | 26 | 227 | 17.7 | 30.6 | 0.00 | 0.00 | 0.00 | 34 | 998.5 |
| 20260504193513 | 26 | 230 | 14.5 | 41.8 | 0.00 | 0.00 | 0.00 | 33 | 998.5 |
| 20260504193034 | 25 | 232 | 20.9 | 41.8 | 0.00 | 0.00 | 0.00 | 33 | 998.8 |
| 20260504192513 | 26 | 236 | 16.1 | 30.6 | 0.00 | 0.00 | 0.00 | 33 | 998.6 |
| 20260504192014 | 25 | 225 | 16.1 | 33.8 | 0.00 | 0.00 | 0.00 | 34 | 998.8 |
| 20260504191534 | 25 | 276 | 20.9 | 38.6 | 0.00 | 0.00 | 0.00 | 32 | 998.8 |
| 20260504191014 | 25 | 251 | 20.9 | 38.6 | 0.00 | 0.00 | 0.00 | 32 | 999.0 |
| 20260504190514 | 25 | 247 | 22.5 | 38.6 | 0.00 | 0.00 | 0.00 | 29 | 999.0 |
| 20260504190032 | 25 | 247 | 20.9 | 35.4 | 0.00 | 0.00 | 0.00 | 31 | 998.9 |